首页
METAR-TAF:

METAR-TAF

机场 :

奥利弗·坦博国际机场

约翰内斯堡, 南非共和國

纬度: 26-08S, 经度: 028-14E, 海拔: 1694米

当前天气观测

该预报发布于29分钟前的15:00 UTC
风速11节,风向西北
温度 23°C
湿度 23%
气压 1025 hPa
能见度10公里或以上
1500米以下无云,无积雨云

METAR: FAOR 161500Z 31011KT CAVOK 23/01 Q1025 NOSIG

时间: 17:29 (15:29 UTC)

预报

该预报发布于5小时和29分钟前的10:00 UTC
预报有效从16日的 12点(UTC)到 17日的 18点(UTC)
风速12节,风向西北
能见度10公里或以上
1500米以下无云,无积雨云
从 16日的 1600点(UTC)
风速8节,风向北转东北
能见度10公里或以上
1500米以下无云,无积雨云
成为
从 17日的 06点(UTC)到 17日的 08点(UTC)
风速15节,风向北转西北
成为
从 17日的 16点(UTC)到 17日的 18点(UTC)
风速11节,风向
散云层高于3500英尺

TAF: FAOR 161000Z 1612/1718 31012KT CAVOK FM161600 02008KT CAVOK BECMG 1706/1708 33015KT BECMG 1716/1718 19011KT SCT035 TX25/1613Z TN14/1704Z

超过4000个机场的气象观测和天气预报(METAR&TAF报告)。

可查询的气象台以黄色和红色小点在地图上表示。

将鼠标移到小点上方,可查看气象台名称。

然后点击查看天气观测和预报。

如需切换地图:点击带黑十字的绿色按钮放大地图;点击带横线的绿色按钮缩小地图;或者点击绿色箭头查看邻近地区的地图。


METAR-TAF: